createdAt,value
2018-09-19T00:01:03.811Z,18.61
2018-09-19T00:03:32.674Z,18.74
2018-09-19T00:06:01.581Z,18.44
2018-09-19T00:08:30.451Z,18.35
2018-09-19T00:10:59.321Z,18.32
2018-09-19T00:13:28.194Z,18.25
2018-09-19T00:15:57.074Z,18.29
2018-09-19T00:18:25.931Z,18.25
2018-09-19T00:20:54.793Z,18.53
2018-09-19T00:23:23.741Z,18.25
2018-09-19T00:25:52.535Z,18.28
2018-09-19T00:28:21.408Z,18.25
2018-09-19T00:30:50.247Z,18.55
2018-09-19T00:33:19.145Z,18.32
2018-09-19T00:35:48.028Z,18.15
2018-09-19T00:38:16.890Z,18.11
2018-09-19T00:40:45.782Z,18.05
2018-09-19T00:43:14.754Z,18.00
2018-09-19T00:45:43.667Z,18.05
2018-09-19T00:48:12.536Z,18.04
2018-09-19T00:50:41.400Z,17.98
2018-09-19T00:53:10.325Z,17.97
2018-09-19T00:55:39.160Z,17.99
2018-09-19T00:58:08.086Z,17.95
2018-09-19T01:00:36.911Z,17.95
2018-09-19T01:03:05.793Z,17.90
2018-09-19T01:05:34.689Z,17.81
2018-09-19T01:08:03.623Z,17.82
2018-09-19T01:10:32.500Z,17.79
2018-09-19T01:13:01.373Z,17.76
2018-09-19T01:15:30.233Z,17.79
2018-09-19T01:17:59.146Z,17.70
2018-09-19T01:20:28.051Z,17.78
2018-09-19T01:22:56.964Z,17.78
2018-09-19T01:25:25.827Z,17.79
2018-09-19T01:27:54.718Z,17.81
2018-09-19T01:30:23.606Z,17.74
2018-09-19T01:32:52.521Z,17.71
2018-09-19T01:35:21.397Z,17.70
2018-09-19T01:37:50.298Z,17.71
2018-09-19T01:40:19.158Z,17.99
2018-09-19T01:42:48.017Z,17.83
2018-09-19T01:45:16.865Z,17.83
2018-09-19T01:47:45.736Z,17.81
2018-09-19T01:50:14.623Z,17.81
2018-09-19T01:52:43.535Z,17.75
2018-09-19T01:55:12.381Z,17.66
2018-09-19T01:57:41.337Z,17.78
2018-09-19T02:00:10.241Z,17.73
2018-09-19T02:02:39.098Z,17.71
2018-09-19T02:05:07.967Z,17.65
2018-09-19T02:07:37.129Z,17.65
2018-09-19T02:10:06.108Z,17.67
2018-09-19T02:12:34.961Z,17.69
2018-09-19T02:15:03.850Z,17.68
2018-09-19T02:17:32.767Z,17.64
2018-09-19T02:20:01.668Z,17.64
2018-09-19T02:22:30.550Z,17.63
2018-09-19T02:24:59.414Z,17.66
2018-09-19T02:27:28.259Z,17.66
2018-09-19T02:29:57.137Z,17.60
2018-09-19T02:32:26.026Z,17.59
2018-09-19T02:34:54.916Z,17.54
2018-09-19T02:37:23.763Z,17.48
2018-09-19T02:39:52.621Z,17.41
2018-09-19T02:42:21.571Z,17.68
2018-09-19T02:44:50.457Z,17.45
2018-09-19T02:47:19.318Z,17.39
2018-09-19T02:49:48.193Z,17.64
2018-09-19T02:52:17.072Z,17.39
2018-09-19T02:54:45.957Z,17.38
2018-09-19T02:57:14.840Z,17.34
2018-09-19T02:59:43.688Z,17.28
2018-09-19T03:02:12.543Z,17.22
2018-09-19T03:07:10.276Z,17.16
2018-09-19T03:09:39.115Z,17.15
2018-09-19T03:12:07.989Z,17.15
2018-09-19T03:14:36.860Z,17.15
2018-09-19T03:17:05.812Z,17.13
2018-09-19T03:19:34.651Z,17.10
2018-09-19T03:22:05.668Z,17.12
2018-09-19T03:24:34.511Z,17.24
2018-09-19T03:27:03.448Z,17.33
2018-09-19T03:29:32.325Z,17.41
2018-09-19T03:32:01.187Z,17.48
2018-09-19T03:34:30.384Z,17.87
2018-09-19T03:36:59.255Z,17.70
2018-09-19T03:39:28.152Z,17.62
2018-09-19T03:41:57.099Z,17.58
2018-09-19T03:44:25.962Z,17.56
2018-09-19T03:46:54.952Z,17.47
2018-09-19T03:49:23.802Z,17.39
2018-09-19T03:51:52.746Z,17.31
2018-09-19T03:54:21.725Z,17.37
2018-09-19T03:56:50.764Z,17.45
2018-09-19T03:59:19.891Z,17.48
2018-09-19T04:01:48.781Z,17.50
2018-09-19T04:04:17.666Z,17.48
2018-09-19T04:06:46.606Z,17.45
2018-09-19T04:09:15.449Z,17.36
2018-09-19T04:11:44.351Z,17.26
2018-09-19T04:14:13.268Z,17.19
2018-09-19T04:16:42.427Z,17.09
2018-09-19T04:19:11.324Z,17.07
2018-09-19T04:21:53.129Z,16.98
2018-09-19T04:24:21.973Z,16.93
2018-09-19T04:26:50.846Z,16.92
2018-09-19T04:29:19.694Z,16.87
2018-09-19T04:31:48.557Z,16.85
2018-09-19T04:34:17.448Z,16.85
2018-09-19T04:36:46.341Z,16.82
2018-09-19T04:39:15.216Z,16.81
2018-09-19T04:41:44.085Z,16.81
2018-09-19T04:44:12.952Z,16.85
2018-09-19T04:46:41.798Z,16.87
2018-09-19T04:49:10.679Z,16.87
2018-09-19T04:51:40.418Z,16.86
2018-09-19T04:54:09.425Z,16.81
2018-09-19T04:56:38.635Z,16.78
2018-09-19T04:59:07.473Z,16.78
2018-09-19T05:01:36.435Z,16.78
2018-09-19T05:04:05.258Z,17.00
2018-09-19T05:06:34.127Z,16.84
2018-09-19T05:09:03.183Z,16.81
2018-09-19T05:11:32.127Z,17.11
2018-09-19T05:14:00.952Z,16.91
2018-09-19T05:16:29.887Z,16.88
2018-09-19T05:18:58.787Z,16.87
2018-09-19T05:21:27.659Z,16.87
2018-09-19T05:23:56.560Z,16.83
2018-09-19T05:26:25.457Z,16.79
2018-09-19T05:28:54.280Z,16.75
2018-09-19T05:31:23.160Z,16.75
2018-09-19T05:33:52.065Z,16.76
2018-09-19T05:36:20.923Z,16.84
2018-09-19T05:38:49.804Z,16.87
2018-09-19T05:41:18.702Z,16.86
2018-09-19T05:43:47.582Z,16.88
2018-09-19T05:46:16.511Z,16.90
2018-09-19T05:48:45.371Z,16.88
2018-09-19T05:51:14.214Z,16.90
2018-09-19T05:53:43.083Z,16.93
2018-09-19T05:56:11.981Z,16.97
2018-09-19T05:58:40.887Z,17.00
2018-09-19T06:01:09.749Z,17.04
2018-09-19T06:03:38.634Z,17.07
2018-09-19T06:06:07.511Z,17.10
2018-09-19T06:08:36.455Z,17.14
2018-09-19T06:11:05.448Z,17.21
2018-09-19T06:13:34.386Z,17.28
2018-09-19T06:16:03.228Z,17.36
2018-09-19T06:18:32.290Z,17.45
2018-09-19T06:21:01.175Z,17.60
2018-09-19T06:23:30.072Z,17.73
2018-09-19T06:25:59.123Z,17.80
2018-09-19T06:28:27.993Z,17.90
2018-09-19T06:30:56.860Z,17.94
2018-09-19T06:33:25.916Z,18.00
2018-09-19T06:35:54.894Z,18.11
2018-09-19T06:38:23.833Z,18.10
2018-09-19T06:40:52.895Z,17.98
2018-09-19T06:43:21.652Z,18.12
2018-09-19T06:45:50.557Z,18.21
2018-09-19T06:48:19.431Z,18.22
2018-09-19T06:50:48.328Z,18.32
2018-09-19T06:53:17.219Z,18.41
2018-09-19T06:55:46.081Z,18.51
2018-09-19T06:58:15.016Z,18.79
2018-09-19T07:00:43.964Z,19.06
2018-09-19T07:03:12.874Z,19.33
2018-09-19T07:05:41.803Z,19.40
2018-09-19T07:08:10.736Z,19.56
2018-09-19T07:10:39.761Z,19.63
2018-09-19T07:13:08.620Z,19.88
2018-09-19T07:15:37.618Z,20.08
2018-09-19T07:18:06.428Z,19.88
2018-09-19T07:20:35.336Z,19.78
2018-09-19T07:23:04.259Z,19.87
2018-09-19T07:25:33.143Z,20.00
2018-09-19T07:28:02.035Z,20.24
2018-09-19T07:30:31.156Z,20.38
2018-09-19T07:33:00.073Z,20.55
2018-09-19T07:35:29.055Z,20.50
2018-09-19T07:37:57.969Z,20.61
2018-09-19T07:40:27.211Z,20.40
2018-09-19T07:42:56.030Z,20.41
2018-09-19T07:45:24.885Z,20.48
2018-09-19T07:47:53.838Z,20.91
2018-09-19T07:50:22.729Z,20.73
2018-09-19T07:52:51.600Z,20.80
2018-09-19T07:55:20.538Z,20.68
2018-09-19T07:57:49.382Z,20.90
2018-09-19T08:00:18.283Z,21.57
2018-09-19T08:02:47.124Z,21.99
2018-09-19T08:05:16.050Z,21.76
2018-09-19T08:07:46.353Z,21.72
2018-09-19T08:10:13.867Z,21.77
2018-09-19T08:12:42.865Z,21.71
2018-09-19T08:15:11.690Z,21.74
2018-09-19T08:17:42.813Z,21.56
2018-09-19T08:20:11.725Z,21.67
2018-09-19T08:22:40.703Z,21.42
2018-09-19T08:25:09.551Z,21.58
2018-09-19T08:27:38.458Z,21.46
2018-09-19T08:30:07.462Z,21.58
2018-09-19T08:32:36.348Z,21.84
2018-09-19T08:35:05.445Z,21.97
2018-09-19T08:37:34.496Z,21.69
2018-09-19T08:40:06.074Z,21.86
2018-09-19T08:42:34.964Z,21.89
2018-09-19T08:45:03.894Z,21.90
2018-09-19T08:47:32.979Z,21.93
2018-09-19T08:50:01.817Z,22.11
2018-09-19T08:52:33.842Z,22.40
2018-09-19T08:55:53.900Z,22.36
2018-09-19T08:58:19.453Z,22.50
2018-09-19T09:00:48.436Z,22.62
2018-09-19T09:03:17.331Z,22.36
2018-09-19T09:05:46.293Z,22.83
2018-09-19T09:08:15.230Z,23.31
2018-09-19T09:10:44.158Z,23.94
2018-09-19T09:13:13.054Z,23.91
2018-09-19T09:15:41.941Z,25.00
2018-09-19T09:18:10.871Z,25.96
2018-09-19T09:20:39.907Z,26.32
2018-09-19T09:23:08.794Z,27.68
2018-09-19T09:25:37.717Z,28.90
2018-09-19T09:28:06.678Z,30.39
2018-09-19T09:30:35.547Z,31.17
2018-09-19T09:33:04.841Z,31.39
2018-09-19T09:35:33.713Z,30.08
2018-09-19T09:38:02.674Z,31.97
2018-09-19T09:40:31.731Z,30.49
2018-09-19T09:43:00.582Z,31.82
2018-09-19T09:45:29.389Z,29.42
2018-09-19T09:47:58.457Z,30.53
2018-09-19T09:50:27.319Z,30.57
2018-09-19T09:53:04.812Z,30.54
2018-09-19T09:58:37.480Z,30.02
2018-09-19T10:01:11.337Z,30.16
2018-09-19T10:03:41.034Z,30.95
2018-09-19T10:06:18.884Z,31.79
2018-09-19T10:09:00.836Z,31.59
2018-09-19T10:11:29.819Z,31.02
2018-09-19T10:14:10.853Z,29.79
2018-09-19T10:16:51.954Z,29.27
2018-09-19T10:19:39.760Z,29.00
2018-09-19T10:22:15.498Z,27.41
2018-09-19T10:24:49.494Z,28.20
2018-09-19T10:27:30.027Z,29.67
2018-09-19T10:29:59.568Z,29.28
2018-09-19T10:32:35.632Z,28.51
2018-09-19T10:35:09.136Z,28.76
2018-09-19T10:37:47.774Z,30.30
2018-09-19T10:40:24.623Z,30.46
2018-09-19T10:42:57.793Z,30.71
2018-09-19T10:45:27.181Z,31.45
2018-09-19T10:47:56.867Z,31.92
2018-09-19T10:50:28.221Z,32.18
2018-09-19T10:53:06.865Z,32.59
2018-09-19T10:55:58.372Z,32.17
2018-09-19T10:58:40.737Z,31.84
2018-09-19T11:01:28.260Z,31.45
2018-09-19T11:03:59.723Z,30.19
2018-09-19T11:06:49.560Z,29.78
2018-09-19T11:09:22.501Z,29.56
2018-09-19T11:11:58.883Z,29.25
2018-09-19T11:14:40.409Z,29.19
2018-09-19T11:17:22.022Z,29.03
2018-09-19T11:20:09.026Z,30.02
2018-09-19T13:20:48.220Z,26.57
2018-09-19T13:23:17.387Z,26.60
2018-09-19T13:25:46.505Z,26.76
2018-09-19T13:28:18.329Z,26.92
2018-09-19T13:30:47.437Z,26.94
2018-09-19T13:33:18.371Z,26.83
2018-09-19T13:35:47.549Z,26.51
2018-09-19T13:38:19.737Z,26.39
2018-09-19T13:40:48.771Z,26.64
2018-09-19T13:43:19.868Z,26.72
2018-09-19T13:45:49.476Z,26.82
2018-09-19T13:48:20.413Z,26.45
2018-09-19T13:50:59.480Z,26.72
2018-09-19T13:53:30.880Z,26.31
2018-09-19T13:56:00.042Z,26.38
2018-09-19T13:58:29.138Z,26.34
2018-09-19T14:00:58.284Z,26.27
2018-09-19T14:03:27.561Z,26.30
2018-09-19T14:05:56.579Z,26.44
2018-09-19T14:08:25.596Z,26.40
2018-09-19T14:10:54.757Z,26.61
2018-09-19T14:13:23.930Z,26.63
2018-09-19T14:15:52.932Z,26.75
2018-09-19T14:18:24.004Z,27.00
2018-09-19T14:20:57.029Z,26.93
2018-09-19T14:23:24.583Z,26.75
2018-09-19T14:25:53.927Z,26.68
2018-09-19T14:28:25.067Z,26.68
2018-09-19T14:30:54.323Z,26.75
2018-09-19T14:33:23.547Z,26.76
2018-09-19T14:35:52.757Z,26.48
2018-09-19T14:38:21.761Z,26.58
2018-09-19T14:40:51.038Z,26.43
2018-09-19T14:43:22.663Z,26.50
2018-09-19T14:45:49.558Z,26.46
2018-09-19T14:48:23.585Z,26.49
2018-09-19T14:50:55.189Z,26.41
2018-09-19T14:53:26.276Z,26.46
2018-09-19T14:55:53.453Z,26.37
2018-09-19T14:58:22.785Z,26.37
2018-09-19T15:00:54.940Z,26.71
2018-09-19T15:03:23.807Z,26.77
2018-09-19T15:05:52.621Z,26.59
2018-09-19T15:08:21.465Z,26.53
2018-09-19T15:10:50.308Z,26.38
2018-09-19T15:13:19.164Z,26.29
2018-09-19T15:15:47.998Z,26.16
2018-09-19T15:18:16.852Z,26.02
2018-09-19T15:20:45.682Z,26.05
2018-09-19T15:23:14.513Z,26.08
2018-09-19T15:25:43.332Z,26.23
2018-09-19T15:28:12.166Z,26.02
2018-09-19T15:30:41.000Z,26.08
2018-09-19T15:33:09.882Z,26.29
2018-09-19T15:35:38.701Z,26.24
2018-09-19T15:38:07.513Z,26.10
2018-09-19T15:40:36.374Z,25.84
2018-09-19T15:43:05.235Z,25.63
2018-09-19T15:45:34.080Z,25.71
2018-09-19T15:48:03.059Z,25.59
2018-09-19T15:50:31.899Z,25.58
2018-09-19T15:53:00.714Z,25.71
2018-09-19T15:55:29.609Z,25.69
2018-09-19T15:57:58.392Z,25.57
2018-09-19T16:00:27.280Z,25.53
2018-09-19T16:02:56.137Z,25.48
2018-09-19T16:05:24.936Z,25.32
2018-09-19T16:07:53.808Z,25.26
2018-09-19T16:10:22.661Z,25.16
2018-09-19T16:12:51.483Z,25.01
2018-09-19T16:15:20.339Z,24.91
2018-09-19T16:17:49.241Z,24.76
2018-09-19T16:20:18.082Z,24.61
2018-09-19T16:22:46.906Z,24.49
2018-09-19T16:25:15.753Z,24.42
2018-09-19T16:27:44.609Z,24.40
2018-09-19T16:30:13.447Z,24.41
2018-09-19T16:32:42.340Z,24.35
2018-09-19T16:35:11.158Z,24.63
2018-09-19T16:37:39.995Z,24.58
2018-09-19T16:40:08.837Z,24.56
2018-09-19T16:42:37.656Z,24.57
2018-09-19T16:45:06.503Z,24.66
2018-09-19T16:47:35.521Z,24.49
2018-09-19T16:50:04.660Z,24.45
2018-09-19T16:52:33.538Z,24.24
2018-09-19T16:55:02.383Z,24.12
2018-09-19T16:57:31.201Z,23.98
2018-09-19T17:00:00.064Z,23.96
2018-09-19T17:02:28.911Z,23.96
2018-09-19T17:04:57.770Z,23.83
2018-09-19T17:07:26.629Z,23.75
2018-09-19T17:09:55.460Z,23.69
2018-09-19T17:12:24.543Z,23.68
2018-09-19T17:14:53.385Z,23.63
2018-09-19T17:17:22.225Z,23.62
2018-09-19T17:19:51.052Z,23.84
2018-09-19T17:22:19.916Z,23.52
2018-09-19T17:24:48.731Z,23.83
2018-09-19T17:27:17.570Z,23.60
2018-09-19T17:29:46.404Z,23.50
2018-09-19T17:32:15.222Z,23.49
2018-09-19T17:34:44.063Z,23.34
2018-09-19T17:37:12.923Z,23.23
2018-09-19T17:39:41.744Z,23.22
2018-09-19T17:42:10.558Z,23.09
2018-09-19T17:44:39.410Z,23.08
2018-09-19T17:47:08.241Z,23.31
2018-09-19T17:49:37.075Z,22.99
2018-09-19T17:52:05.921Z,22.97
2018-09-19T17:54:34.767Z,22.96
2018-09-19T17:57:03.595Z,22.79
2018-09-19T17:59:32.415Z,22.77
2018-09-19T18:02:01.250Z,23.02
2018-09-19T18:04:30.086Z,22.82
2018-09-19T18:06:58.885Z,22.75
2018-09-19T18:09:27.743Z,22.69
2018-09-19T18:11:56.594Z,22.67
2018-09-19T18:14:25.426Z,22.62
2018-09-19T18:16:54.266Z,22.61
2018-09-19T18:19:23.110Z,22.86
2018-09-19T18:21:51.930Z,22.60
2018-09-19T18:24:20.778Z,22.48
2018-09-19T18:26:49.580Z,22.38
2018-09-19T18:29:18.396Z,22.34
2018-09-19T18:31:47.276Z,22.31
2018-09-19T18:34:16.129Z,22.23
2018-09-19T18:36:44.972Z,22.19
2018-09-19T18:39:13.831Z,22.15
2018-09-19T18:41:42.678Z,22.15
2018-09-19T18:44:11.517Z,22.08
2018-09-19T18:46:40.551Z,21.97
2018-09-19T18:49:09.376Z,21.92
2018-09-19T18:51:38.211Z,21.91
2018-09-19T18:54:07.046Z,21.91
2018-09-19T18:56:35.917Z,21.88
2018-09-19T18:59:04.740Z,21.86
2018-09-19T19:01:33.577Z,21.84
2018-09-19T19:04:02.493Z,21.80
2018-09-19T19:06:31.329Z,22.12
2018-09-19T19:09:00.151Z,21.86
2018-09-19T19:11:28.983Z,21.82
2018-09-19T19:13:57.795Z,21.81
2018-09-19T19:16:26.625Z,21.71
2018-09-19T19:18:55.473Z,21.73
2018-09-19T19:21:24.282Z,21.63
2018-09-19T19:23:53.119Z,21.60
2018-09-19T19:26:21.953Z,21.56
2018-09-19T19:28:50.793Z,21.44
2018-09-19T19:31:19.624Z,21.45
2018-09-19T19:33:48.457Z,21.45
2018-09-19T19:36:17.291Z,21.39
2018-09-19T19:38:46.143Z,21.38
2018-09-19T19:41:14.985Z,21.70
2018-09-19T19:43:43.821Z,21.45
2018-09-19T19:46:12.645Z,21.33
2018-09-19T19:48:41.500Z,21.31
2018-09-19T19:51:10.342Z,21.25
2018-09-19T19:53:39.152Z,21.19
2018-09-19T19:56:07.981Z,21.20
2018-09-19T19:58:36.819Z,21.13
2018-09-19T20:01:05.644Z,21.00
2018-09-19T20:03:34.461Z,20.98
2018-09-19T20:06:03.288Z,21.00
2018-09-19T20:08:32.097Z,21.03
2018-09-19T20:11:00.963Z,20.98
2018-09-19T20:13:29.800Z,20.91
2018-09-19T20:15:58.633Z,20.86
2018-09-19T20:18:27.459Z,20.84
2018-09-19T20:20:56.282Z,20.82
2018-09-19T20:23:25.179Z,20.80
2018-09-19T20:25:53.993Z,20.82
2018-09-19T20:28:22.842Z,20.82
2018-09-19T20:30:51.660Z,21.15
2018-09-19T20:33:20.500Z,20.86
2018-09-19T20:35:49.363Z,20.87
2018-09-19T20:38:18.233Z,20.85
2018-09-19T20:40:47.045Z,20.85
2018-09-19T20:43:15.905Z,20.75
2018-09-19T20:45:44.719Z,20.71
2018-09-19T20:48:13.536Z,20.68
2018-09-19T20:50:42.416Z,20.75
2018-09-19T20:53:11.236Z,20.75
2018-09-19T20:55:40.088Z,20.69
2018-09-19T20:58:08.904Z,20.67
2018-09-19T21:00:37.738Z,20.66
2018-09-19T21:03:06.669Z,20.66
2018-09-19T21:05:35.482Z,20.96
2018-09-19T21:08:04.341Z,20.69
2018-09-19T21:10:33.335Z,20.66
2018-09-19T21:13:02.148Z,20.63
2018-09-19T21:15:30.968Z,20.48
2018-09-19T21:17:59.808Z,20.46
2018-09-19T21:20:28.623Z,20.46
2018-09-19T21:22:57.469Z,20.44
2018-09-19T21:25:26.365Z,20.46
2018-09-19T21:27:55.195Z,20.39
2018-09-19T21:30:24.008Z,20.46
2018-09-19T21:32:52.835Z,20.44
2018-09-19T21:35:21.674Z,20.34
2018-09-19T21:37:50.505Z,20.37
2018-09-19T21:40:19.343Z,20.40
2018-09-19T21:42:48.171Z,20.71
2018-09-19T21:45:17.051Z,20.53
2018-09-19T21:47:45.888Z,20.79
2018-09-19T21:50:14.697Z,20.54
2018-09-19T21:52:43.584Z,20.34
2018-09-19T21:55:12.417Z,20.39
2018-09-19T21:57:41.252Z,20.42
2018-09-19T22:00:10.107Z,20.39
2018-09-19T22:02:38.905Z,20.43
2018-09-19T22:05:07.579Z,20.36
2018-09-19T22:07:36.386Z,20.35
2018-09-19T22:10:05.236Z,20.65
2018-09-19T22:12:34.057Z,20.42
2018-09-19T22:15:02.915Z,20.32
2018-09-19T22:17:31.737Z,20.31
2018-09-19T22:20:00.596Z,20.28
2018-09-19T22:22:29.438Z,20.56
2018-09-19T22:24:58.283Z,20.33
2018-09-19T22:27:27.157Z,20.24
2018-09-19T22:29:55.942Z,20.11
2018-09-19T22:32:24.778Z,20.19
2018-09-19T22:34:53.606Z,20.19
2018-09-19T22:37:22.449Z,20.07
2018-09-19T22:39:51.288Z,20.13
2018-09-19T22:42:20.133Z,20.05
2018-09-19T22:44:48.999Z,20.10
2018-09-19T22:47:17.862Z,20.36
2018-09-19T22:49:46.708Z,20.27
2018-09-19T22:52:15.539Z,20.24
2018-09-19T22:54:44.376Z,20.21
2018-09-19T22:57:13.205Z,20.21
2018-09-19T22:59:42.050Z,20.23
2018-09-19T23:02:10.925Z,20.17
2018-09-19T23:04:39.754Z,20.46
2018-09-19T23:07:08.590Z,20.28
2018-09-19T23:09:37.470Z,20.23
2018-09-19T23:12:06.311Z,20.09
2018-09-19T23:14:35.125Z,20.04
2018-09-19T23:17:04.126Z,20.02
2018-09-19T23:19:32.968Z,20.01
2018-09-19T23:22:02.117Z,19.96
2018-09-19T23:24:30.965Z,19.95
2018-09-19T23:26:59.808Z,19.78
2018-09-19T23:29:28.649Z,19.87
2018-09-19T23:31:57.492Z,19.81
2018-09-19T23:34:26.385Z,19.88
2018-09-19T23:36:55.238Z,19.89
2018-09-19T23:39:24.097Z,19.86
2018-09-19T23:41:52.908Z,19.80
2018-09-19T23:44:21.765Z,19.82
2018-09-19T23:46:50.620Z,19.81
2018-09-19T23:49:19.527Z,19.78
2018-09-19T23:51:48.323Z,19.78
2018-09-19T23:54:17.152Z,20.06
2018-09-19T23:56:46.000Z,19.86
2018-09-19T23:59:14.826Z,19.80
